Airfield :
LOGIN :

Register | Disclaimer

   EN    FR    IT 

 










Legend :    VFR   Marginal VFR   IFR   Intensive IFR   Very Intensive IFR
Visi :
Ceiling :
>= 8 km
>= 3000ft
5 to 8 km
1000 to 3000 ft
1500m to 5 km
500 to 1000 ft
800 to 1500m
200 to 500 ft
< 800m
< 200 ft
Symbols :   Thunderstorms  Fog  Heavy snow  Heavy precipitations  Wind > 20 kt
SIGMETs :     Misc.  Thunderstorms  Icing  Turbulence  Mountain Waves  Volcanic Ashes







- Airport Elevation : 499 ft
- IATA code : TLS
- Download approach charts


LFBO - Toulouse / Blagnac

CURRENT METAR :
  • 211530Z AUTO 12020G30KT CAVOK 24/16 Q1010 TEMPO 14030G40KT

EXPIRED METARs :
  • 211500Z AUTO 13018KT CAVOK 24/17 Q1010 TEMPO 14030G40KT
  • 211430Z AUTO 13024KT 100V160 CAVOK 24/17 Q1010 TEMPO 14030G40KT
  • 211400Z AUTO 14022KT 9999 SCT028 BKN120 24/17 Q1011 TEMPO 14030G40KT
  • 211330Z AUTO 13022G32KT 9999 SCT028 BKN110 BKN170 25/17 Q1011 NOSIG

TAF TAF LFBO
Valid from the 21 at 12:00 until the 22 at 18:00 UTC


211100Z 2112/2218 13015G25KT 9999 SCT020
PROB40
TEMPO 2112/2117 14030G40KT
BECMG 2118/2120 14012KT
TEMPO 2121/2206 BKN010
BECMG 2207/2209 26006KT
TEMPO 2210/2216 30015G25KT 3000 RA BKN020 SCT030TCU
ATIS : +33 5 62 74 66 36
No reported NOTAMs for that airfield.



MET'MAP, your aeronautical weather chart ! - Copyright ORBIFLY December 2007 - Disclaimer

ORBIFLY MET'MAP TEAM :

Programming & Development : Alexandra Zaïnal
Concept & Development : Baudouin d'Aumeries
Co-Development & Prog : Marc-Olivier Méhu
Technical & hardware support : Manuel Goepfert

Contact : metmap@orbifly.com




SOURCES & CREDITS :

   NOAA